Forestville, Michigan
Current Conditions -  °F | °C
As of 12:58 AM on Wednesday 22 Oct 2014 (Local Time) from KBAX Reporting Station
Overcast Overcast  
Wind Chill: 38°   Ceiling: 2100
Heat Index: 43°   Visibility: 10mi
Dew Point: 39°   Wind: 10mph
Humidity: 85%   Direction: 30°NNE
Pressure: 30.25"   Gusts: NA
Location:  43.66°N, 82.61°W
Report Text: KBAX 220458Z AUTO 03009KT 10SM OVC021 06/04 A3025 RMK AO2 T00630040
Loading
Personal Weather Stations






























Interactive Weather Map
Tropical Storm Tracking
New forecast layout! Learn more

10-Day Weather Forecast

Advertisements
Track Severe Weather on mobile